NKS4A KDTW-KLAS
Flight info
| Callsign | NKS4A |
|---|---|
| Flight time | N/A |
| Altitude | 40000 |
| Route | KAYLN3 SMUUV OBK IOW J60 HVE GGAPP CHOWW3 |
| Aircraft | A35K/H-SDE2E3GHIJ3J4J5LM1ORWXY/LB1D1 |
Departure
| Time | 2026-05-07 07:32 |
|---|---|
| Airport | Detroit Metropolitan Wayne County Airport (KDTW) |
Arrival
| Time | N/A |
|---|---|
| Airport | Harry Reid International Airport (KLAS) |
| Time | Latitude | Longitude | Altitude | Speed | Heading |
|---|---|---|---|---|---|
| 2026-05-07 07:10 | 42.20543 | -83.36106 | 652 ft | 0 kts | 118° |
| 2026-05-07 07:15 | 42.20549 | -83.36121 | 652 ft | 3 kts | 116° |
| 2026-05-07 07:16 | 42.20554 | -83.36147 | 653 ft | 3 kts | 106° |
| 2026-05-07 07:16 | 42.20564 | -83.36172 | 652 ft | 3 kts | 144° |
| 2026-05-07 07:16 | 42.20582 | -83.36183 | 652 ft | 3 kts | 181° |
| 2026-05-07 07:16 | 42.20596 | -83.36181 | 652 ft | 0 kts | 199° |
| 2026-05-07 07:18 | 42.20582 | -83.36188 | 656 ft | 4 kts | 200° |
| 2026-05-07 07:19 | 42.20546 | -83.36210 | 652 ft | 7 kts | 209° |
| 2026-05-07 07:19 | 42.20491 | -83.36251 | 654 ft | 11 kts | 209° |
| 2026-05-07 07:19 | 42.20417 | -83.36306 | 652 ft | 14 kts | 209° |
| 2026-05-07 07:19 | 42.20325 | -83.36375 | 655 ft | 16 kts | 207° |
| 2026-05-07 07:20 | 42.20210 | -83.36415 | 653 ft | 18 kts | 191° |
| 2026-05-07 07:20 | 42.20115 | -83.36402 | 657 ft | 14 kts | 141° |
| 2026-05-07 07:20 | 42.20088 | -83.36312 | 652 ft | 0 kts | 101° |
| 2026-05-07 07:21 | 42.20085 | -83.36292 | 653 ft | 4 kts | 101° |
| 2026-05-07 07:21 | 42.20083 | -83.36278 | 652 ft | 0 kts | 101° |
| 2026-05-07 07:23 | 42.20080 | -83.36255 | 655 ft | 4 kts | 101° |
| 2026-05-07 07:23 | 42.20075 | -83.36218 | 652 ft | 0 kts | 98° |
| 2026-05-07 07:24 | 42.20074 | -83.36207 | 655 ft | 3 kts | 98° |
| 2026-05-07 07:24 | 42.20070 | -83.36161 | 652 ft | 7 kts | 96° |
| 2026-05-07 07:24 | 42.20069 | -83.36080 | 656 ft | 10 kts | 89° |
| 2026-05-07 07:24 | 42.20069 | -83.35975 | 652 ft | 11 kts | 90° |
| 2026-05-07 07:25 | 42.20073 | -83.35762 | 653 ft | 11 kts | 88° |
| 2026-05-07 07:25 | 42.20075 | -83.35655 | 655 ft | 11 kts | 88° |
| 2026-05-07 07:25 | 42.20077 | -83.35548 | 655 ft | 11 kts | 88° |
| 2026-05-07 07:26 | 42.20079 | -83.35441 | 653 ft | 11 kts | 88° |
| 2026-05-07 07:26 | 42.20081 | -83.35334 | 653 ft | 11 kts | 90° |
| 2026-05-07 07:26 | 42.20081 | -83.35227 | 653 ft | 11 kts | 90° |
| 2026-05-07 07:26 | 42.20069 | -83.35134 | 653 ft | 8 kts | 136° |
| 2026-05-07 07:27 | 42.20008 | -83.35121 | 656 ft | 11 kts | 193° |
| 2026-05-07 07:27 | 42.19930 | -83.35166 | 655 ft | 14 kts | 206° |
| 2026-05-07 07:27 | 42.19860 | -83.35216 | 655 ft | 0 kts | 207° |
| 2026-05-07 07:29 | 42.19857 | -83.35218 | 653 ft | 1 kts | 207° |
| 2026-05-07 07:29 | 42.19843 | -83.35227 | 655 ft | 3 kts | 207° |
| 2026-05-07 07:29 | 42.19813 | -83.35248 | 658 ft | 6 kts | 207° |
| 2026-05-07 07:30 | 42.19764 | -83.35283 | 657 ft | 10 kts | 207° |
| 2026-05-07 07:30 | 42.19694 | -83.35329 | 656 ft | 13 kts | 200° |
| 2026-05-07 07:30 | 42.19675 | -83.35333 | 653 ft | 2 kts | 186° |
| 2026-05-07 07:30 | 42.19647 | -83.35316 | 656 ft | 12 kts | 149° |
| 2026-05-07 07:31 | 42.19599 | -83.35200 | 651 ft | 15 kts | 95° |
| 2026-05-07 07:31 | 42.19650 | -83.35118 | 651 ft | 0 kts | 29° |
| 2026-05-07 07:31 | 42.19745 | -83.35046 | 654 ft | 49 kts | 29° |
| 2026-05-07 07:32 | 42.20274 | -83.34658 | 655 ft | 121 kts | 28° |
| 2026-05-07 07:32 | 42.21195 | -83.33983 | 736 ft | 171 kts | 28° |
| 2026-05-07 07:32 | 42.22240 | -83.33289 | 1545 ft | 166 kts | 17° |
| 2026-05-07 07:32 | 42.23375 | -83.32938 | 2242 ft | 172 kts | 5° |
| 2026-05-07 07:33 | 42.24613 | -83.32875 | 2773 ft | 186 kts | 355° |
| 2026-05-07 07:33 | 42.25982 | -83.33139 | 3112 ft | 212 kts | 345° |
| 2026-05-07 07:33 | 42.27447 | -83.33745 | 3669 ft | 226 kts | 340° |
| 2026-05-07 07:33 | 42.28999 | -83.34464 | 4200 ft | 245 kts | 340° |
| 2026-05-07 07:34 | 42.30623 | -83.35210 | 4938 ft | 253 kts | 340° |
| 2026-05-07 07:34 | 42.32338 | -83.35983 | 5840 ft | 258 kts | 339° |
| 2026-05-07 07:34 | 42.34034 | -83.36743 | 6536 ft | 262 kts | 339° |
| 2026-05-07 07:34 | 42.35771 | -83.37519 | 6898 ft | 264 kts | 339° |
| 2026-05-07 07:35 | 42.37522 | -83.38309 | 6973 ft | 266 kts | 338° |
| 2026-05-07 07:35 | 42.39156 | -83.39441 | 6982 ft | 263 kts | 320° |
| 2026-05-07 07:35 | 42.40419 | -83.41197 | 6979 ft | 261 kts | 307° |
| 2026-05-07 07:35 | 42.41538 | -83.43131 | 6978 ft | 261 kts | 306° |
| 2026-05-07 07:36 | 42.42645 | -83.45083 | 6986 ft | 261 kts | 306° |
| 2026-05-07 07:36 | 42.43754 | -83.47027 | 6987 ft | 261 kts | 306° |
| 2026-05-07 07:36 | 42.44869 | -83.48973 | 6988 ft | 261 kts | 306° |
| 2026-05-07 07:36 | 42.45943 | -83.50953 | 6990 ft | 260 kts | 300° |
| 2026-05-07 07:37 | 42.46587 | -83.53216 | 7014 ft | 258 kts | 278° |
| 2026-05-07 07:37 | 42.46624 | -83.55646 | 7333 ft | 260 kts | 267° |
| 2026-05-07 07:37 | 42.46511 | -83.58111 | 8080 ft | 264 kts | 266° |
| 2026-05-07 07:37 | 42.46394 | -83.60595 | 8679 ft | 264 kts | 266° |
| 2026-05-07 07:38 | 42.46281 | -83.63076 | 8943 ft | 264 kts | 266° |
| 2026-05-07 07:38 | 42.46171 | -83.65565 | 8983 ft | 265 kts | 266° |
| 2026-05-07 07:38 | 42.46061 | -83.68059 | 8978 ft | 266 kts | 266° |
| 2026-05-07 07:38 | 42.45953 | -83.70566 | 8982 ft | 266 kts | 266° |
| 2026-05-07 07:39 | 42.45842 | -83.73065 | 8982 ft | 267 kts | 266° |
| 2026-05-07 07:39 | 42.45734 | -83.75575 | 8996 ft | 266 kts | 267° |
| 2026-05-07 07:39 | 42.45629 | -83.78079 | 9323 ft | 268 kts | 266° |
| 2026-05-07 07:39 | 42.45517 | -83.80615 | 10165 ft | 270 kts | 266° |
| 2026-05-07 07:40 | 42.45402 | -83.83220 | 10833 ft | 288 kts | 266° |
| 2026-05-07 07:40 | 42.45278 | -83.86032 | 11267 ft | 310 kts | 266° |
| 2026-05-07 07:40 | 42.45145 | -83.89023 | 11867 ft | 324 kts | 266° |
| 2026-05-07 07:40 | 42.45008 | -83.92091 | 12746 ft | 328 kts | 266° |
| 2026-05-07 07:41 | 42.44870 | -83.95183 | 13685 ft | 331 kts | 265° |
| 2026-05-07 07:41 | 42.44729 | -83.98319 | 14573 ft | 334 kts | 265° |
| 2026-05-07 07:41 | 42.44586 | -84.01478 | 15430 ft | 337 kts | 265° |
| 2026-05-07 07:41 | 42.44441 | -84.04658 | 16257 ft | 341 kts | 265° |
| 2026-05-07 07:42 | 42.44294 | -84.07876 | 17103 ft | 343 kts | 264° |
| 2026-05-07 07:42 | 42.44144 | -84.11114 | 17951 ft | 346 kts | 264° |
| 2026-05-07 07:42 | 42.43993 | -84.14374 | 18799 ft | 349 kts | 264° |
| 2026-05-07 07:42 | 42.43842 | -84.17617 | 19633 ft | 351 kts | 264° |
| 2026-05-07 07:43 | 42.43686 | -84.20936 | 20467 ft | 354 kts | 264° |
| 2026-05-07 07:43 | 42.43527 | -84.24283 | 21262 ft | 358 kts | 264° |
| 2026-05-07 07:43 | 42.43366 | -84.27657 | 22072 ft | 360 kts | 264° |
| 2026-05-07 07:43 | 42.43206 | -84.31042 | 22837 ft | 363 kts | 264° |
| 2026-05-07 07:44 | 42.43156 | -84.34470 | 23579 ft | 367 kts | 268° |
| 2026-05-07 07:44 | 42.43233 | -84.37947 | 24300 ft | 370 kts | 269° |
| 2026-05-07 07:44 | 42.43330 | -84.41434 | 25054 ft | 372 kts | 269° |
| 2026-05-07 07:44 | 42.43427 | -84.44924 | 25871 ft | 371 kts | 268° |
| 2026-05-07 07:45 | 42.43522 | -84.48405 | 26757 ft | 368 kts | 268° |
| 2026-05-07 07:45 | 42.43614 | -84.51863 | 27602 ft | 366 kts | 268° |
| 2026-05-07 07:45 | 42.43702 | -84.55288 | 28477 ft | 361 kts | 268° |
| 2026-05-07 07:45 | 42.43792 | -84.58602 | 29885 ft | 341 kts | 267° |
| 2026-05-07 07:46 | 42.43876 | -84.61696 | 31390 ft | 318 kts | 267° |
| 2026-05-07 07:46 | 42.43954 | -84.64541 | 32258 ft | 288 kts | 266° |
| 2026-05-07 07:46 | 42.44026 | -84.67193 | 32757 ft | 279 kts | 266° |
| 2026-05-07 07:46 | 42.44087 | -84.69820 | 32930 ft | 278 kts | 266° |
| 2026-05-07 07:47 | 42.44143 | -84.72443 | 32782 ft | 279 kts | 266° |
| 2026-05-07 07:47 | 42.44197 | -84.75080 | 32533 ft | 281 kts | 266° |
| 2026-05-07 07:47 | 42.44253 | -84.77735 | 32286 ft | 283 kts | 266° |
| 2026-05-07 07:47 | 42.44311 | -84.80371 | 32047 ft | 284 kts | 266° |
| 2026-05-07 07:48 | 42.44372 | -84.83052 | 31980 ft | 286 kts | 266° |
| 2026-05-07 07:48 | 42.44434 | -84.85746 | 31977 ft | 286 kts | 266° |
| 2026-05-07 07:48 | 42.44498 | -84.88438 | 31979 ft | 286 kts | 266° |
| 2026-05-07 07:48 | 42.44561 | -84.91129 | 31980 ft | 286 kts | 266° |
| 2026-05-07 07:49 | 42.44621 | -84.93826 | 32025 ft | 285 kts | 267° |
| 2026-05-07 07:49 | 42.44661 | -84.95595 | 32233 ft | 284 kts | 267° |
| 2026-05-07 07:49 | 42.44738 | -84.99192 | 32673 ft | 287 kts | 266° |
| 2026-05-07 07:49 | 42.44795 | -85.01894 | 33119 ft | 287 kts | 266° |
| 2026-05-07 07:50 | 42.44833 | -85.03679 | 33387 ft | 286 kts | 266° |
| 2026-05-07 07:50 | 42.44891 | -85.06378 | 33756 ft | 287 kts | 266° |
| 2026-05-07 07:50 | 42.44946 | -85.09107 | 33964 ft | 293 kts | 266° |
| 2026-05-07 07:50 | 42.45000 | -85.11900 | 34111 ft | 300 kts | 266° |
| 2026-05-07 07:51 | 42.45055 | -85.14756 | 34251 ft | 307 kts | 266° |
| 2026-05-07 07:51 | 42.45111 | -85.17689 | 34376 ft | 314 kts | 267° |
| 2026-05-07 07:51 | 42.45170 | -85.20680 | 34510 ft | 321 kts | 267° |
| 2026-05-07 07:51 | 42.45231 | -85.23738 | 34652 ft | 328 kts | 267° |
| 2026-05-07 07:52 | 42.45291 | -85.26864 | 34785 ft | 335 kts | 267° |
| 2026-05-07 07:52 | 42.45353 | -85.30050 | 34933 ft | 342 kts | 267° |
| 2026-05-07 07:52 | 42.45414 | -85.33300 | 35065 ft | 349 kts | 267° |
| 2026-05-07 07:52 | 42.45477 | -85.36614 | 35218 ft | 355 kts | 267° |
| 2026-05-07 07:53 | 42.45538 | -85.39992 | 35361 ft | 362 kts | 267° |
| 2026-05-07 07:53 | 42.45600 | -85.43434 | 35496 ft | 368 kts | 268° |
| 2026-05-07 07:53 | 42.45662 | -85.46879 | 35651 ft | 374 kts | 268° |
| 2026-05-07 07:53 | 42.45726 | -85.50430 | 35784 ft | 380 kts | 268° |
| 2026-05-07 07:54 | 42.45789 | -85.54036 | 35921 ft | 386 kts | 268° |
| 2026-05-07 07:54 | 42.45851 | -85.57687 | 36104 ft | 390 kts | 268° |
| 2026-05-07 07:54 | 42.45912 | -85.61367 | 36390 ft | 391 kts | 268° |
| 2026-05-07 07:54 | 42.45973 | -85.65051 | 36724 ft | 391 kts | 268° |
| 2026-05-07 07:55 | 42.46032 | -85.68738 | 37036 ft | 392 kts | 268° |
| 2026-05-07 07:55 | 42.46089 | -85.72432 | 37388 ft | 391 kts | 268° |
| 2026-05-07 07:55 | 42.46145 | -85.76104 | 37754 ft | 390 kts | 268° |
| 2026-05-07 07:55 | 42.46200 | -85.79775 | 38045 ft | 390 kts | 268° |
| 2026-05-07 07:56 | 42.46254 | -85.83453 | 38329 ft | 390 kts | 268° |
| 2026-05-07 07:56 | 42.46306 | -85.87128 | 38550 ft | 392 kts | 268° |
| 2026-05-07 07:56 | 42.46357 | -85.90824 | 38815 ft | 392 kts | 268° |
| 2026-05-07 07:56 | 42.46407 | -85.94518 | 39078 ft | 392 kts | 268° |
| 2026-05-07 07:57 | 42.46456 | -85.98218 | 39279 ft | 393 kts | 268° |
| 2026-05-07 07:57 | 42.46503 | -86.01922 | 39476 ft | 395 kts | 268° |
| 2026-05-07 07:57 | 42.46549 | -86.05652 | 39599 ft | 397 kts | 268° |
| 2026-05-07 07:57 | 42.46591 | -86.09406 | 39732 ft | 399 kts | 268° |
| 2026-05-07 07:58 | 42.46463 | -86.13162 | 39903 ft | 399 kts | 262° |
| 2026-05-07 07:58 | 42.46096 | -86.16883 | 40013 ft | 400 kts | 261° |
| 2026-05-07 07:58 | 42.45665 | -86.20611 | 40024 ft | 400 kts | 260° |
| 2026-05-07 07:59 | 42.44730 | -86.28000 | 40027 ft | 401 kts | 259° |
| 2026-05-07 07:59 | 42.43761 | -86.35447 | 40023 ft | 402 kts | 259° |
| 2026-05-07 08:00 | 42.42796 | -86.42897 | 40028 ft | 402 kts | 259° |
| 2026-05-07 08:00 | 42.41833 | -86.50356 | 40024 ft | 403 kts | 259° |
| 2026-05-07 08:01 | 42.40864 | -86.57835 | 40028 ft | 404 kts | 259° |
| 2026-05-07 08:01 | 42.39888 | -86.65322 | 40033 ft | 404 kts | 259° |
| 2026-05-07 08:02 | 42.38905 | -86.72827 | 40040 ft | 405 kts | 259° |
| 2026-05-07 08:02 | 42.37915 | -86.80348 | 40034 ft | 406 kts | 259° |
| 2026-05-07 08:03 | 42.36918 | -86.87870 | 40035 ft | 407 kts | 259° |
| 2026-05-07 08:03 | 42.35917 | -86.95397 | 40038 ft | 407 kts | 259° |
| 2026-05-07 08:04 | 42.34908 | -87.02938 | 40035 ft | 408 kts | 259° |
| 2026-05-07 08:04 | 42.33892 | -87.10485 | 40039 ft | 408 kts | 259° |
| 2026-05-07 08:05 | 42.32871 | -87.18041 | 40046 ft | 409 kts | 259° |
| 2026-05-07 08:05 | 42.31842 | -87.25609 | 40046 ft | 409 kts | 259° |
| 2026-05-07 08:06 | 42.30811 | -87.33164 | 40077 ft | 409 kts | 259° |
| 2026-05-07 08:06 | 42.29784 | -87.40669 | 40086 ft | 409 kts | 259° |
| 2026-05-07 08:07 | 42.28746 | -87.48230 | 40088 ft | 409 kts | 259° |
| 2026-05-07 08:07 | 42.27704 | -87.55800 | 40100 ft | 409 kts | 259° |
| 2026-05-07 08:08 | 42.26657 | -87.63388 | 40111 ft | 409 kts | 259° |
| 2026-05-07 08:08 | 42.25610 | -87.70955 | 40107 ft | 409 kts | 259° |
| 2026-05-07 08:09 | 42.24554 | -87.78565 | 40146 ft | 408 kts | 259° |
| 2026-05-07 08:09 | 42.23553 | -87.85766 | 40156 ft | 409 kts | 259° |
| 2026-05-07 08:10 | 42.22445 | -87.93731 | 40139 ft | 409 kts | 259° |
| 2026-05-07 08:10 | 42.21384 | -88.01267 | 40170 ft | 408 kts | 258° |
| 2026-05-07 08:11 | 42.20292 | -88.08796 | 40154 ft | 409 kts | 258° |
| 2026-05-07 08:11 | 42.19186 | -88.16335 | 40121 ft | 410 kts | 258° |
| 2026-05-07 08:12 | 42.18103 | -88.23863 | 40189 ft | 409 kts | 258° |
| 2026-05-07 08:12 | 42.17747 | -88.26368 | 40196 ft | 409 kts | 259° |